Terminal Aerodrome Forecast
Issued by NWS Twin Cities, MN

Home | Current Version | Previous Version | Graphics & Text | Print | Product List | Glossary On
Versions: 1 2 3 4 5 6 7 8 9 10 11 12 13 14 15 16 17 18 19 20 21 22 23 24 25 26
000
FTUS43 KMPX 240900 AAA
TAFMSP
TAF AMD
KMSP 240900Z 2409/2512 14005KT P6SM SCT250
     FM241400 15009KT P6SM BKN250
     FM241600 16015G28KT P6SM BKN200
     FM250000 17011KT P6SM OVC080
     FM250300 17008KT P6SM OVC050
     FM250600 20005KT P6SM OVC040=

USA.gov is the U.S. government's official web portal to all federal, state and local government web resources and services.